Philipstown, New York
Current Conditions -  °F | °C
As of 3:45 PM on Friday 19 Dec 2014 (Local Time) from KSWF Reporting Station
Broken Clouds Broken Clouds  
Wind Chill: 21°   Ceiling: 3000
Heat Index: 32°   Visibility: 20mi
Dew Point: 23°   Wind: 17mph
Humidity: 69%   Direction: 290°WNW
Pressure: 30.07"   Gusts: NA
Location:  41.4593°N, 73.8985°W
Report Text: KSWF 192045Z 29015KT 20SM BKN030 00/M05 A3007
Loading
Personal Weather Stations






























Interactive Weather Map New forecast layout! Learn more

10-Day Weather Forecast

Advertisements
Track Severe Weather on mobile